Time;durP1;ratioP1;P1;durP2;ratioP2;P2;SDS_P1;SDS_P2;PMS_P1;PMS_P2;Temp;Humidity;BMP_temperature;BMP_pressure;BME280_temperature;BME280_humidity;BME280_pressure;Samples;Min_cycle;Max_cycle;Signal;HPM_P1;HPM_P2
2023/03/16 00:00:50;;;;;;;8.13;3.20;;;4.60;99.90;;;;;;5049767;28;20040;-75
2023/03/16 00:03:18;;;;;;;11.48;3.70;;;4.60;99.90;;;;;;5043071;28;20057;-74
2023/03/16 00:05:45;;;;;;;7.70;3.47;;;4.70;99.90;;;;;;5043520;28;20050;-75
2023/03/16 00:08:11;;;;;;;7.22;3.50;;;4.60;99.90;;;;;;5035682;28;20381;-75
2023/03/16 00:10:37;;;;;;;9.20;3.55;;;4.70;99.90;;;;;;5040644;28;20036;-75
2023/03/16 00:13:05;;;;;;;7.20;3.90;;;4.60;99.90;;;;;;5044945;28;20086;-75
2023/03/16 00:15:31;;;;;;;8.85;3.78;;;4.70;99.90;;;;;;5052241;28;20029;-75
2023/03/16 00:17:56;;;;;;;7.90;3.38;;;4.70;99.90;;;;;;5025801;28;20040;-75
2023/03/16 00:20:22;;;;;;;10.70;3.80;;;4.70;99.90;;;;;;5033405;28;20041;-73
2023/03/16 00:22:47;;;;;;;8.82;3.55;;;4.70;99.90;;;;;;5023276;28;20125;-75
2023/03/16 00:25:13;;;;;;;8.07;3.67;;;4.70;99.90;;;;;;5032073;28;20075;-75
2023/03/16 00:27:40;;;;;;;11.38;3.45;;;4.70;99.90;;;;;;5016910;28;20068;-75
2023/03/16 00:30:06;;;;;;;9.85;3.80;;;4.70;99.90;;;;;;5024103;28;20426;-75
2023/03/16 00:32:35;;;;;;;9.18;3.80;;;4.70;99.90;;;;;;5023037;28;20433;-75
2023/03/16 00:35:01;;;;;;;8.65;3.80;;;4.70;99.90;;;;;;5032363;28;20102;-75
2023/03/16 00:37:28;;;;;;;7.68;3.50;;;4.70;99.90;;;;;;5020105;28;20041;-75
2023/03/16 00:39:55;;;;;;;8.93;4.40;;;4.70;99.90;;;;;;5050991;28;20044;-75
2023/03/16 00:42:26;;;;;;;9.18;4.22;;;4.70;99.90;;;;;;5031130;28;20064;-75
2023/03/16 00:44:58;;;;;;;10.65;4.13;;;4.70;99.90;;;;;;5029963;28;20504;-75
2023/03/16 00:47:31;;;;;;;8.65;3.65;;;4.70;99.90;;;;;;5029852;28;20053;-75
2023/03/16 00:49:58;;;;;;;10.40;3.88;;;4.70;99.90;;;;;;5015650;28;20044;-73
2023/03/16 00:52:26;;;;;;;10.57;3.95;;;4.70;99.90;;;;;;5027247;28;20037;-75
2023/03/16 00:54:52;;;;;;;7.50;3.83;;;4.70;99.90;;;;;;5036261;28;20112;-74
2023/03/16 00:57:20;;;;;;;9.13;3.88;;;4.70;99.90;;;;;;5036720;28;20041;-75
2023/03/16 00:59:46;;;;;;;9.00;3.70;;;4.70;99.90;;;;;;5031139;28;20044;-75
2023/03/16 01:02:12;;;;;;;10.05;3.85;;;4.70;99.90;;;;;;5025851;28;20061;-72
2023/03/16 01:04:41;;;;;;;8.27;3.97;;;4.60;99.90;;;;;;5018289;28;20094;-75
2023/03/16 01:07:09;;;;;;;9.23;4.10;;;4.60;99.90;;;;;;5022601;28;20052;-75
2023/03/16 01:09:35;;;;;;;11.25;4.55;;;4.60;99.90;;;;;;5028035;28;20040;-75
2023/03/16 01:12:10;;;;;;;7.68;4.03;;;4.60;99.90;;;;;;5024187;28;20094;-75
2023/03/16 01:14:37;;;;;;;7.40;3.80;;;4.70;99.90;;;;;;5027889;28;20457;-75
2023/03/16 01:17:07;;;;;;;10.48;4.00;;;4.70;99.90;;;;;;5021057;28;20474;-75
2023/03/16 01:19:34;;;;;;;9.73;3.83;;;4.70;99.90;;;;;;5029367;28;20385;-75
2023/03/16 01:22:01;;;;;;;9.90;4.45;;;4.60;99.90;;;;;;5049346;28;20090;-73
2023/03/16 01:24:27;;;;;;;9.73;3.88;;;4.60;99.90;;;;;;5033277;28;20049;-75
2023/03/16 01:26:53;;;;;;;8.80;3.85;;;4.60;99.90;;;;;;5028303;28;20044;-75
2023/03/16 01:29:18;;;;;;;11.70;4.55;;;4.60;99.90;;;;;;5022385;28;20070;-75
2023/03/16 01:31:44;;;;;;;8.88;4.00;;;4.50;99.90;;;;;;5034136;28;20033;-75
2023/03/16 01:34:15;;;;;;;8.25;4.07;;;4.60;99.90;;;;;;5031236;28;20052;-75
2023/03/16 01:36:41;;;;;;;9.15;4.00;;;4.60;99.90;;;;;;5026042;28;20041;-75
2023/03/16 01:39:06;;;;;;;8.50;4.07;;;4.50;99.90;;;;;;5045976;28;20136;-74
2023/03/16 01:41:32;;;;;;;9.07;4.00;;;4.50;99.90;;;;;;5018437;28;20037;-75
2023/03/16 01:43:58;;;;;;;10.15;4.53;;;4.60;99.90;;;;;;5032897;28;20095;-75
2023/03/16 01:46:27;;;;;;;10.57;4.45;;;4.60;99.90;;;;;;5046058;28;20127;-75
2023/03/16 01:48:55;;;;;;;10.57;4.40;;;4.60;99.90;;;;;;5023467;28;20111;-75
2023/03/16 01:51:50;;;;;;;10.85;4.20;;;4.60;99.90;;;;;;5040206;28;20458;-74
2023/03/16 01:54:30;;;;;;;7.97;4.18;;;4.60;99.90;;;;;;5017273;28;20933;-75
2023/03/16 01:57:04;;;;;;;9.88;4.22;;;4.60;99.90;;;;;;5039870;28;20056;-75
2023/03/16 01:59:36;;;;;;;11.00;4.60;;;4.60;99.90;;;;;;5037151;28;20047;-75
2023/03/16 02:02:02;;;;;;;11.15;4.82;;;4.60;99.90;;;;;;5032519;28;20045;-75
2023/03/16 02:04:36;;;;;;;7.93;4.22;;;4.60;99.90;;;;;;5031000;28;20060;-75
2023/03/16 02:07:04;;;;;;;9.48;4.15;;;4.60;99.90;;;;;;5031653;28;20066;-74
2023/03/16 02:09:30;;;;;;;9.98;4.60;;;4.70;99.90;;;;;;5036441;28;20041;-75
2023/03/16 02:11:57;;;;;;;10.10;4.18;;;4.70;99.90;;;;;;5044688;28;20042;-75
2023/03/16 02:14:23;;;;;;;10.35;4.95;;;4.60;99.90;;;;;;5032002;28;20091;-73
2023/03/16 02:16:49;;;;;;;11.30;4.65;;;4.70;99.90;;;;;;5031687;28;20521;-75
2023/03/16 02:19:46;;;;;;;11.32;4.60;;;4.70;99.90;;;;;;5030718;28;20175;-75
2023/03/16 02:22:12;;;;;;;10.32;4.38;;;4.70;99.90;;;;;;4988182;28;20432;-75
2023/03/16 02:24:38;;;;;;;13.23;5.22;;;4.70;99.90;;;;;;5014265;28;20041;-75
2023/03/16 02:27:11;;;;;;;8.60;4.13;;;4.70;99.90;;;;;;5012219;28;20178;-75
2023/03/16 02:29:58;;;;;;;13.23;4.68;;;4.70;99.90;;;;;;5035376;28;20554;-75
2023/03/16 02:32:26;;;;;;;13.38;5.18;;;4.70;99.90;;;;;;5026620;28;20063;-76
2023/03/16 02:34:53;;;;;;;8.68;4.10;;;4.70;99.90;;;;;;5041858;28;20036;-75
2023/03/16 02:37:19;;;;;;;9.68;4.20;;;4.70;99.90;;;;;;5016406;28;20042;-76
2023/03/16 02:39:44;;;;;;;10.98;4.60;;;4.70;99.90;;;;;;5027313;28;20103;-75
2023/03/16 02:42:13;;;;;;;11.50;5.07;;;4.70;99.90;;;;;;5039128;28;20445;-76
2023/03/16 02:44:42;;;;;;;8.45;4.70;;;4.80;99.90;;;;;;5042545;28;20146;-74
2023/03/16 02:47:40;;;;;;;9.13;4.40;;;4.70;99.90;;;;;;5024468;28;20092;-75
2023/03/16 02:50:06;;;;;;;9.02;4.53;;;4.70;99.90;;;;;;5033437;28;20176;-75
2023/03/16 02:52:37;;;;;;;8.65;4.65;;;4.70;99.90;;;;;;5039557;28;20044;-75
2023/03/16 02:55:05;;;;;;;9.52;4.90;;;4.70;99.90;;;;;;5055860;28;20039;-74
2023/03/16 02:57:30;;;;;;;7.68;4.47;;;4.70;99.90;;;;;;5034959;28;20052;-75
2023/03/16 02:59:56;;;;;;;9.02;4.32;;;4.70;99.90;;;;;;5040586;28;20040;-75
2023/03/16 03:02:22;;;;;;;7.80;4.80;;;4.70;99.90;;;;;;5032202;28;20033;-75
2023/03/16 03:04:48;;;;;;;12.45;5.30;;;4.70;99.90;;;;;;5030100;28;20077;-75
2023/03/16 03:07:14;;;;;;;10.77;5.10;;;4.80;99.90;;;;;;5046737;28;20045;-75
2023/03/16 03:09:41;;;;;;;11.18;4.75;;;4.80;99.90;;;;;;5029901;28;20041;-75
2023/03/16 03:12:08;;;;;;;11.45;4.95;;;4.70;99.90;;;;;;5048257;28;20072;-75
2023/03/16 03:14:36;;;;;;;12.98;5.20;;;4.80;99.90;;;;;;5030788;28;20448;-75
2023/03/16 03:17:03;;;;;;;12.10;5.03;;;4.80;99.90;;;;;;5026303;28;20049;-75
2023/03/16 03:19:28;;;;;;;14.18;5.40;;;4.80;99.90;;;;;;5045455;28;20044;-76
2023/03/16 03:21:55;;;;;;;10.35;5.13;;;4.80;99.90;;;;;;5044615;28;20051;-75
2023/03/16 03:24:21;;;;;;;11.05;5.00;;;4.80;99.90;;;;;;5034393;28;20045;-72
2023/03/16 03:26:47;;;;;;;11.07;5.05;;;4.80;99.90;;;;;;5034426;28;20086;-75
2023/03/16 03:29:13;;;;;;;11.13;5.28;;;4.70;99.90;;;;;;5023666;28;20041;-75
2023/03/16 03:31:38;;;;;;;10.20;4.85;;;4.80;99.90;;;;;;5032790;28;20037;-75
2023/03/16 03:34:05;;;;;;;12.55;5.22;;;4.80;99.90;;;;;;5026762;28;20033;-75
2023/03/16 03:36:32;;;;;;;7.55;4.53;;;4.80;99.90;;;;;;5038568;28;20045;-75
2023/03/16 03:38:57;;;;;;;10.75;4.97;;;4.80;99.90;;;;;;5028772;28;20040;-74
2023/03/16 03:41:23;;;;;;;9.95;4.68;;;4.80;99.90;;;;;;5039319;28;20045;-75
2023/03/16 03:43:48;;;;;;;10.98;4.53;;;4.80;99.90;;;;;;5029924;28;20033;-75
2023/03/16 03:46:14;;;;;;;10.30;4.65;;;4.80;99.90;;;;;;5046637;22;20067;-74
2023/03/16 03:48:39;;;;;;;13.82;4.50;;;4.80;99.90;;;;;;5048921;28;20135;-76
2023/03/16 03:51:05;;;;;;;8.75;5.10;;;4.70;99.90;;;;;;5037743;28;20028;-77
2023/03/16 03:53:31;;;;;;;9.07;4.30;;;4.60;99.90;;;;;;5040198;28;20389;-77
2023/03/16 03:55:57;;;;;;;9.20;4.47;;;4.70;99.90;;;;;;5054281;28;20033;-77
2023/03/16 03:58:23;;;;;;;10.88;4.63;;;4.60;99.90;;;;;;5016628;28;20103;-77
2023/03/16 04:00:48;;;;;;;12.63;4.55;;;4.80;99.90;;;;;;5019473;28;20059;-77
2023/03/16 04:03:15;;;;;;;8.90;4.57;;;4.80;99.90;;;;;;5012507;28;20048;-77
2023/03/16 04:05:40;;;;;;;11.93;4.35;;;4.60;99.90;;;;;;5034278;28;20049;-77
2023/03/16 04:08:06;;;;;;;8.75;4.35;;;4.60;99.90;;;;;;5054430;28;20401;-77
2023/03/16 04:10:31;;;;;;;9.52;4.50;;;4.80;99.90;;;;;;5054902;28;20072;-77
2023/03/16 04:12:58;;;;;;;9.55;4.53;;;4.70;99.90;;;;;;5029668;28;20077;-77
2023/03/16 04:15:25;;;;;;;10.15;4.47;;;4.60;99.90;;;;;;5044666;28;20115;-77
2023/03/16 04:17:53;;;;;;;8.80;4.05;;;4.80;99.90;;;;;;5047353;28;20501;-77
2023/03/16 04:20:21;;;;;;;10.13;4.53;;;4.70;99.90;;;;;;5020668;28;20056;-76
2023/03/16 04:22:47;;;;;;;9.38;4.22;;;4.80;99.90;;;;;;5041219;28;20554;-76
2023/03/16 04:25:15;;;;;;;11.73;4.97;;;4.80;99.90;;;;;;5045326;28;20044;-76
2023/03/16 04:27:42;;;;;;;10.00;4.47;;;4.80;99.90;;;;;;5039178;28;20036;-77
2023/03/16 04:30:11;;;;;;;12.65;4.78;;;4.70;99.90;;;;;;5037469;28;20485;-77
2023/03/16 04:32:36;;;;;;;7.88;4.13;;;4.70;99.90;;;;;;5034042;28;20044;-77
2023/03/16 04:35:03;;;;;;;7.25;3.75;;;4.80;99.90;;;;;;5037617;28;20029;-77
2023/03/16 04:37:29;;;;;;;7.88;4.07;;;4.80;99.90;;;;;;5031561;28;20431;-77
2023/03/16 04:39:55;;;;;;;9.55;4.28;;;4.60;99.90;;;;;;5029116;28;20046;-77
2023/03/16 04:42:20;;;;;;;13.95;4.90;;;4.60;99.90;;;;;;5027023;28;20033;-77
2023/03/16 04:44:46;;;;;;;7.82;4.20;;;4.60;99.90;;;;;;5026974;28;20032;-77
2023/03/16 04:47:14;;;;;;;10.00;4.32;;;4.60;99.90;;;;;;5028598;28;20119;-77
2023/03/16 04:49:41;;;;;;;10.23;4.63;;;4.70;99.90;;;;;;5022347;28;20124;-78
2023/03/16 04:52:07;;;;;;;10.90;4.32;;;4.70;99.90;;;;;;5045108;28;20080;-77
2023/03/16 04:54:33;;;;;;;10.32;4.28;;;4.80;99.90;;;;;;5051428;28;20079;-77
2023/03/16 04:56:59;;;;;;;8.85;4.30;;;6.10;99.90;;;;;;5042194;28;20037;-77
2023/03/16 04:59:26;;;;;;;9.35;4.63;;;4.70;99.90;;;;;;5036889;28;20056;-77
2023/03/16 05:01:52;;;;;;;7.00;4.50;;;5.00;99.90;;;;;;5029211;28;20037;-77
2023/03/16 05:04:18;;;;;;;8.13;4.18;;;4.60;99.90;;;;;;5020308;28;20034;-77
2023/03/16 05:06:44;;;;;;;9.68;4.60;;;4.60;99.90;;;;;;5051247;28;20033;-77
2023/03/16 05:09:10;;;;;;;8.07;4.15;;;4.70;99.90;;;;;;5039781;28;20041;-77
2023/03/16 05:11:36;;;;;;;9.40;4.47;;;4.70;99.90;;;;;;5030231;28;20029;-78
2023/03/16 05:14:02;;;;;;;9.98;4.30;;;4.70;99.90;;;;;;5038112;28;20098;-76
2023/03/16 05:16:29;;;;;;;8.40;4.25;;;4.70;99.90;;;;;;5020022;28;20470;-77
2023/03/16 05:18:57;;;;;;;9.93;4.20;;;4.70;99.90;;;;;;5030906;28;20030;-77
2023/03/16 05:21:23;;;;;;;8.18;4.30;;;4.70;99.90;;;;;;5025483;28;20049;-76
2023/03/16 05:23:49;;;;;;;8.23;4.30;;;4.80;99.90;;;;;;5053617;28;20040;-76
2023/03/16 05:26:15;;;;;;;10.80;4.20;;;4.70;99.90;;;;;;5022131;28;20043;-76
2023/03/16 05:28:41;;;;;;;15.27;4.90;;;4.70;99.90;;;;;;5028265;28;20416;-76
2023/03/16 05:31:07;;;;;;;9.00;4.50;;;4.70;99.90;;;;;;5048499;28;20076;-76
2023/03/16 05:33:33;;;;;;;8.02;4.47;;;4.70;99.90;;;;;;5031504;28;20119;-76
2023/03/16 05:35:58;;;;;;;10.27;4.55;;;4.70;99.90;;;;;;5032777;28;20132;-76
2023/03/16 05:38:26;;;;;;;8.65;5.10;;;4.70;99.90;;;;;;5045075;28;20021;-76
2023/03/16 05:40:53;;;;;;;10.40;4.80;;;4.60;99.90;;;;;;5031044;28;20107;-76
2023/03/16 05:43:20;;;;;;;8.30;4.50;;;4.60;99.90;;;;;;5012673;28;20048;-77
2023/03/16 05:45:46;;;;;;;9.00;4.47;;;4.60;99.90;;;;;;5036858;28;20420;-75
2023/03/16 05:48:13;;;;;;;12.35;4.45;;;4.70;99.90;;;;;;5028436;28;20037;-76
2023/03/16 05:50:40;;;;;;;9.18;4.95;;;4.60;99.90;;;;;;5042635;28;20051;-77
2023/03/16 05:53:07;;;;;;;9.38;4.55;;;5.50;99.90;;;;;;5014277;28;20029;-75
2023/03/16 05:55:33;;;;;;;9.27;4.47;;;4.60;99.90;;;;;;5036184;28;20476;-76
2023/03/16 05:57:59;;;;;;;8.68;4.68;;;4.60;99.90;;;;;;5028625;28;20044;-76
2023/03/16 06:00:26;;;;;;;10.77;4.97;;;4.60;99.90;;;;;;5041269;28;20400;-75
2023/03/16 06:02:52;;;;;;;9.63;5.30;;;5.40;99.90;;;;;;5020352;28;20524;-76
2023/03/16 06:05:20;;;;;;;10.70;4.93;;;4.60;99.90;;;;;;5036703;28;20424;-76
2023/03/16 06:07:46;;;;;;;11.45;4.80;;;4.60;99.90;;;;;;5038421;28;20041;-75
2023/03/16 06:10:13;;;;;;;11.18;4.78;;;4.60;99.90;;;;;;5030293;28;20059;-75
2023/03/16 06:12:40;;;;;;;8.50;4.47;;;4.60;99.90;;;;;;5037888;28;20040;-76
2023/03/16 06:15:06;;;;;;;10.50;4.72;;;4.60;99.90;;;;;;5012897;28;20049;-76
2023/03/16 06:17:32;;;;;;;11.13;5.00;;;4.60;99.90;;;;;;5042964;28;20048;-76
2023/03/16 06:19:58;;;;;;;9.45;4.68;;;4.70;99.90;;;;;;5044780;28;20048;-76
2023/03/16 06:22:24;;;;;;;9.23;5.03;;;4.50;99.90;;;;;;5044032;28;20048;-76
2023/03/16 06:24:51;;;;;;;9.85;5.10;;;4.70;99.90;;;;;;5033325;28;20124;-76
2023/03/16 06:27:19;;;;;;;10.98;5.07;;;4.70;99.90;;;;;;5030451;28;20049;-76
2023/03/16 06:29:45;;;;;;;9.63;4.13;;;4.70;99.90;;;;;;5061119;28;20415;-76
2023/03/16 06:32:11;;;;;;;9.88;4.72;;;4.70;99.90;;;;;;5038182;28;20045;-76
2023/03/16 06:34:37;;;;;;;10.52;4.80;;;4.70;99.90;;;;;;5034200;28;20055;-76
2023/03/16 06:37:03;;;;;;;10.45;4.50;;;4.80;99.90;;;;;;5046105;28;20112;-76
2023/03/16 06:39:29;;;;;;;8.65;4.70;;;4.80;99.90;;;;;;5039472;28;20044;-76
2023/03/16 06:41:55;;;;;;;6.65;4.10;;;4.80;99.90;;;;;;5036477;28;20033;-76
2023/03/16 06:44:21;;;;;;;12.88;4.43;;;4.70;99.90;;;;;;5039873;28;20515;-76
2023/03/16 06:46:46;;;;;;;6.75;4.28;;;4.80;99.90;;;;;;5059938;28;20049;-77
2023/03/16 06:49:12;;;;;;;7.88;4.65;;;4.90;99.90;;;;;;5027297;28;20048;-76
2023/03/16 06:51:37;;;;;;;8.20;3.95;;;4.90;99.90;;;;;;5047950;28;20043;-76
2023/03/16 06:54:03;;;;;;;9.55;4.25;;;4.90;99.90;;;;;;5049004;28;20052;-77
2023/03/16 06:56:30;;;;;;;8.55;4.07;;;5.00;99.90;;;;;;5035819;28;20037;-76
2023/03/16 06:58:56;;;;;;;9.00;4.45;;;5.00;99.90;;;;;;5045065;28;20072;-76
2023/03/16 07:01:21;;;;;;;9.70;4.40;;;5.00;99.90;;;;;;5046560;28;20488;-76
2023/03/16 07:03:47;;;;;;;10.43;4.40;;;5.00;99.90;;;;;;5039878;28;20032;-76
2023/03/16 07:06:13;;;;;;;8.75;4.25;;;5.00;99.90;;;;;;5035383;28;20044;-76
2023/03/16 07:08:38;;;;;;;8.35;4.03;;;5.20;99.90;;;;;;5027628;28;20064;-76
2023/03/16 07:11:04;;;;;;;6.68;3.78;;;5.00;99.90;;;;;;5029933;28;20091;-76
2023/03/16 07:13:30;;;;;;;8.35;4.55;;;5.10;99.90;;;;;;5034132;28;20045;-77
2023/03/16 07:15:55;;;;;;;9.95;4.28;;;5.10;99.90;;;;;;5032371;28;20485;-76
2023/03/16 07:18:21;;;;;;;9.75;3.85;;;5.10;99.90;;;;;;5052973;28;20378;-77
2023/03/16 07:20:47;;;;;;;8.40;4.18;;;5.10;99.90;;;;;;5027592;28;20489;-77
2023/03/16 07:23:13;;;;;;;6.80;3.90;;;5.00;99.90;;;;;;5028364;28;20517;-77
2023/03/16 07:25:39;;;;;;;7.43;4.25;;;5.10;99.90;;;;;;5040411;28;20041;-77
2023/03/16 07:28:04;;;;;;;8.80;4.13;;;5.20;99.90;;;;;;5054301;28;20036;-77
2023/03/16 07:30:30;;;;;;;9.40;4.18;;;5.20;99.90;;;;;;5026956;28;20041;-77
2023/03/16 07:32:55;;;;;;;9.70;4.32;;;5.10;99.90;;;;;;5029328;28;20051;-76
2023/03/16 07:35:21;;;;;;;9.73;3.95;;;5.30;99.90;;;;;;5029772;28;20057;-77
2023/03/16 07:37:47;;;;;;;9.20;4.10;;;5.30;99.90;;;;;;5013245;28;20510;-77
2023/03/16 07:40:14;;;;;;;7.97;3.88;;;5.30;99.90;;;;;;5019584;28;20492;-76
2023/03/16 07:42:40;;;;;;;7.88;4.15;;;5.30;99.90;;;;;;5009703;28;20044;-77
2023/03/16 07:45:07;;;;;;;8.98;4.32;;;5.40;99.90;;;;;;5030992;28;20037;-77
2023/03/16 07:47:33;;;;;;;7.68;4.03;;;5.40;99.90;;;;;;5026732;28;20037;-77
2023/03/16 07:50:00;;;;;;;7.93;4.18;;;5.30;99.90;;;;;;5010388;28;20044;-77
2023/03/16 07:52:26;;;;;;;10.27;4.40;;;5.30;99.90;;;;;;5015142;28;20393;-78
2023/03/16 07:54:51;;;;;;;8.57;4.63;;;5.30;99.90;;;;;;5023033;28;20127;-78
2023/03/16 07:57:17;;;;;;;8.45;5.00;;;5.30;99.90;;;;;;5005333;28;20037;-78
2023/03/16 07:59:43;;;;;;;8.00;4.18;;;5.30;99.90;;;;;;5047901;28;20048;-77
2023/03/16 08:02:14;;;;;;;10.07;4.65;;;5.40;99.90;;;;;;5022929;28;20080;-77
2023/03/16 08:04:44;;;;;;;9.68;4.75;;;5.40;99.90;;;;;;5018354;28;20036;-77
2023/03/16 08:07:13;;;;;;;9.85;4.30;;;5.40;99.90;;;;;;5011648;28;20049;-77
2023/03/16 08:09:41;;;;;;;9.48;4.60;;;5.40;99.90;;;;;;5021891;28;20036;-77
2023/03/16 08:12:07;;;;;;;9.98;4.57;;;5.40;99.90;;;;;;5039831;28;20082;-77
2023/03/16 08:14:33;;;;;;;8.73;4.55;;;5.40;99.90;;;;;;5032192;28;20567;-77
2023/03/16 08:17:08;;;;;;;6.60;4.30;;;5.40;99.90;;;;;;5043158;28;20094;-76
2023/03/16 08:19:33;;;;;;;9.98;4.78;;;5.40;99.90;;;;;;5033342;28;20094;-77
2023/03/16 08:22:02;;;;;;;12.30;4.78;;;5.40;99.90;;;;;;5018100;28;20511;-77
2023/03/16 08:24:29;;;;;;;8.75;4.55;;;5.40;99.90;;;;;;5030951;28;20043;-79
2023/03/16 08:26:56;;;;;;;7.40;4.72;;;5.40;99.90;;;;;;5027891;28;20045;-79
2023/03/16 08:29:23;;;;;;;7.13;4.57;;;5.40;99.90;;;;;;5048388;28;20041;-78
2023/03/16 08:31:49;;;;;;;9.07;3.47;;;5.30;99.90;;;;;;5015364;28;20105;-79
2023/03/16 08:34:16;;;;;;;9.07;4.55;;;5.30;99.90;;;;;;5044239;28;20069;-79
2023/03/16 08:36:42;;;;;;;9.02;4.78;;;5.40;99.90;;;;;;5018557;28;20101;-79
2023/03/16 08:39:08;;;;;;;10.43;4.97;;;5.40;99.90;;;;;;5048790;28;20444;-79
2023/03/16 08:41:34;;;;;;;8.98;4.82;;;5.50;99.90;;;;;;5039039;28;20049;-80
2023/03/16 08:44:03;;;;;;;9.32;4.80;;;5.40;99.90;;;;;;5048710;28;20037;-81
2023/03/16 08:46:29;;;;;;;10.50;4.72;;;6.30;99.90;;;;;;5015999;28;20033;-78
2023/03/16 08:49:02;;;;;;;7.88;4.82;;;5.60;99.90;;;;;;5049526;28;20085;-81
2023/03/16 08:51:28;;;;;;;6.75;4.43;;;5.60;99.90;;;;;;5039051;28;20060;-78
2023/03/16 08:53:54;;;;;;;10.30;4.53;;;5.50;99.90;;;;;;5033500;28;20155;-78
2023/03/16 08:56:20;;;;;;;8.00;4.70;;;5.50;99.90;;;;;;5028607;28;20045;-79
2023/03/16 08:58:46;;;;;;;9.75;4.68;;;5.50;99.90;;;;;;5052737;28;20041;-79
2023/03/16 09:01:14;;;;;;;11.77;5.35;;;5.50;99.90;;;;;;5014184;28;20044;-80
2023/03/16 09:03:41;;;;;;;9.15;4.90;;;5.50;99.90;;;;;;5041653;28;20493;-80
2023/03/16 09:06:13;;;;;;;9.60;4.40;;;5.50;99.90;;;;;;5015492;28;20043;-79
2023/03/16 09:08:41;;;;;;;9.00;4.78;;;5.70;99.90;;;;;;5025669;28;20037;-79
2023/03/16 09:11:11;;;;;;;8.75;4.43;;;5.70;99.90;;;;;;5063489;28;20059;-79
2023/03/16 09:13:39;;;;;;;9.10;4.68;;;5.70;99.90;;;;;;5015559;28;20029;-79
2023/03/16 09:16:08;;;;;;;9.27;4.35;;;5.70;99.90;;;;;;5026156;28;20037;-79
2023/03/16 09:18:35;;;;;;;11.02;5.35;;;4.80;99.90;;;;;;5031092;28;20029;-81
2023/03/16 09:21:06;;;;;;;12.38;5.07;;;5.60;99.90;;;;;;5049661;28;20124;-80
2023/03/16 09:23:33;;;;;;;8.02;4.65;;;5.60;99.90;;;;;;5047638;28;20028;-80
2023/03/16 09:26:04;;;;;;;10.90;4.68;;;5.80;99.90;;;;;;5044780;28;20051;-79
2023/03/16 09:28:30;;;;;;;9.52;4.88;;;5.80;99.90;;;;;;5055194;28;20047;-78
2023/03/16 09:31:00;;;;;;;9.32;4.50;;;5.70;99.90;;;;;;5025452;28;20072;-77
2023/03/16 09:33:30;;;;;;;9.68;5.15;;;5.80;99.90;;;;;;5036840;28;20037;-79
2023/03/16 09:35:59;;;;;;;13.07;5.03;;;5.70;99.90;;;;;;5034526;28;20033;-80
2023/03/16 09:38:26;;;;;;;10.50;5.10;;;5.90;99.90;;;;;;5038786;28;20033;-79
2023/03/16 09:41:03;;;;;;;9.30;5.25;;;5.80;99.90;;;;;;5045780;28;20086;-79
2023/03/16 09:43:34;;;;;;;11.65;5.18;;;5.90;99.90;;;;;;5034126;28;20045;-80
2023/03/16 09:46:12;;;;;;;9.10;4.97;;;5.90;99.90;;;;;;5026674;28;20068;-80
2023/03/16 09:48:41;;;;;;;13.18;5.13;;;5.80;99.90;;;;;;5028488;28;20072;-79
2023/03/16 09:51:19;;;;;;;11.75;4.82;;;5.80;99.90;;;;;;5018924;28;20037;-79
2023/03/16 09:53:47;;;;;;;10.60;5.55;;;6.00;99.90;;;;;;5025506;28;20094;-79
2023/03/16 09:56:28;;;;;;;12.95;5.93;;;5.90;99.90;;;;;;5044854;28;20037;-80
2023/03/16 09:58:55;;;;;;;11.52;5.53;;;6.00;99.90;;;;;;5049676;28;20029;-80
2023/03/16 10:01:49;;;;;;;11.95;5.38;;;5.90;99.90;;;;;;5035830;28;20040;-80
2023/03/16 10:04:35;;;;;;;13.85;5.40;;;6.00;99.90;;;;;;5053512;28;20064;-79
2023/03/16 10:07:23;;;;;;;15.30;5.75;;;6.00;99.90;;;;;;5017924;28;20473;-79
2023/03/16 10:09:55;;;;;;;8.93;5.07;;;6.10;99.90;;;;;;5022179;28;20031;-81
2023/03/16 10:12:31;;;;;;;9.65;5.30;;;6.00;99.90;;;;;;5033261;28;20047;-79
2023/03/16 10:15:10;;;;;;;10.05;5.35;;;6.10;99.90;;;;;;5033411;28;20048;-80
2023/03/16 10:17:55;;;;;;;11.85;5.15;;;6.10;99.90;;;;;;5051972;28;20511;-80
2023/03/16 10:20:23;;;;;;;10.25;4.90;;;6.20;99.90;;;;;;5022069;28;20091;-81
2023/03/16 10:22:53;;;;;;;9.40;5.30;;;6.20;99.90;;;;;;5013709;28;20041;-80
2023/03/16 10:25:46;;;;;;;10.30;5.43;;;7.40;99.90;;;;;;5017717;28;20043;-79
2023/03/16 10:28:21;;;;;;;10.75;5.35;;;6.30;99.90;;;;;;5039015;28;20052;-79
2023/03/16 10:30:49;;;;;;;11.88;5.65;;;6.40;99.90;;;;;;5030120;28;20045;-79
2023/03/16 10:33:25;;;;;;;10.80;5.10;;;6.30;99.90;;;;;;5013361;28;20094;-80
2023/03/16 10:35:57;;;;;;;11.07;5.50;;;6.40;99.90;;;;;;5048981;28;20033;-80
2023/03/16 10:38:26;;;;;;;13.13;5.75;;;6.40;99.90;;;;;;5017975;28;20036;-80
2023/03/16 10:40:52;;;;;;;12.40;5.20;;;6.50;99.90;;;;;;5016895;28;20034;-80
2023/03/16 10:43:20;;;;;;;11.27;5.30;;;6.40;99.90;;;;;;5025222;28;20049;-79
2023/03/16 10:45:49;;;;;;;11.77;5.60;;;6.50;99.90;;;;;;5041090;28;20045;-80
2023/03/16 10:48:21;;;;;;;9.95;5.75;;;6.50;99.90;;;;;;5031090;28;20171;-79
2023/03/16 10:50:49;;;;;;;;;;;6.50;99.90;;;;;;5023699;28;20535;-80
2023/03/16 10:53:20;;;;;;;11.75;5.47;;;6.60;99.90;;;;;;5057583;28;19917;-79
2023/03/16 10:55:46;;;;;;;13.13;5.30;;;7.60;99.90;;;;;;5038937;28;20036;-79
2023/03/16 10:58:24;;;;;;;10.70;5.80;;;6.50;99.90;;;;;;5052659;28;20315;-80
2023/03/16 11:00:52;;;;;;;13.75;5.43;;;6.60;99.90;;;;;;5013672;28;20068;-80
2023/03/16 11:03:24;;;;;;;9.88;5.45;;;6.60;99.90;;;;;;5040261;28;20041;-80
2023/03/16 11:06:01;;;;;;;11.02;5.57;;;6.60;99.90;;;;;;5022274;28;20059;-80
2023/03/16 11:08:36;;;;;;;9.50;5.22;;;6.60;99.90;;;;;;5033567;28;20574;-79
2023/03/16 11:11:16;;;;;;;10.25;5.22;;;7.50;99.90;;;;;;5022985;28;20122;-80
2023/03/16 11:13:47;;;;;;;8.20;5.05;;;7.00;99.90;;;;;;5027832;28;20048;-80
2023/03/16 11:16:38;;;;;;;11.43;5.00;;;6.80;99.90;;;;;;5052871;28;20398;-80
2023/03/16 11:19:28;;;;;;;9.77;4.80;;;6.90;99.90;;;;;;5051190;28;20032;-79
2023/03/16 11:22:08;;;;;;;8.13;4.68;;;6.90;99.90;;;;;;5037147;28;20388;-79
2023/03/16 11:24:43;;;;;;;10.20;5.60;;;7.00;99.90;;;;;;5053795;28;20037;-79
2023/03/16 11:27:25;;;;;;;9.57;4.72;;;7.60;99.90;;;;;;5028599;28;20119;-79
2023/03/16 11:30:05;;;;;;;8.77;5.15;;;7.10;99.90;;;;;;5050872;28;20040;-79
2023/03/16 11:32:40;;;;;;;9.80;5.18;;;7.20;99.90;;;;;;5052631;28;20037;-79
2023/03/16 11:35:15;;;;;;;10.20;5.13;;;7.20;99.90;;;;;;5052083;28;20430;-78
2023/03/16 11:38:09;;;;;;;9.15;4.97;;;7.30;99.90;;;;;;5036233;28;20508;-78
2023/03/16 11:40:39;;;;;;;7.25;3.92;;;7.30;99.90;;;;;;5036635;28;20052;-79
2023/03/16 11:43:16;;;;;;;10.98;4.88;;;7.30;99.90;;;;;;5021735;28;20532;-77
2023/03/16 11:46:08;;;;;;;8.73;4.20;;;7.50;99.90;;;;;;5030542;28;20148;-78
2023/03/16 11:49:05;;;;;;;8.13;4.32;;;7.60;99.90;;;;;;5045235;28;20045;-77
2023/03/16 11:51:41;;;;;;;9.43;4.18;;;7.70;99.90;;;;;;5039442;28;20102;-78
2023/03/16 11:54:19;;;;;;;7.10;4.10;;;7.80;99.90;;;;;;5028866;28;20481;-77
2023/03/16 11:56:53;;;;;;;9.85;4.30;;;7.80;99.90;;;;;;5037569;28;20485;-78
2023/03/16 11:59:30;;;;;;;9.70;4.55;;;7.90;99.90;;;;;;5052260;28;20041;-78
2023/03/16 12:02:08;;;;;;;5.50;3.88;;;8.00;99.90;;;;;;5058333;28;20041;-77
2023/03/16 12:04:35;;;;;;;10.95;4.50;;;8.10;99.90;;;;;;5037130;28;20045;-78
2023/03/16 12:07:27;;;;;;;9.07;4.30;;;8.20;99.90;;;;;;5048217;28;20057;-77
2023/03/16 12:10:22;;;;;;;5.82;3.50;;;8.30;99.90;;;;;;5049440;28;20040;-77
2023/03/16 12:12:53;;;;;;;6.68;3.95;;;8.30;99.90;;;;;;5054608;28;20115;-77
2023/03/16 12:15:32;;;;;;;6.38;3.58;;;8.30;99.90;;;;;;5050480;28;20318;-77
2023/03/16 12:18:14;;;;;;;8.23;4.10;;;8.30;99.90;;;;;;5045143;28;20055;-77
2023/03/16 12:20:49;;;;;;;8.45;3.72;;;8.20;99.90;;;;;;5040315;28;20497;-78
2023/03/16 12:23:26;;;;;;;7.07;3.97;;;8.30;99.90;;;;;;5020514;28;20037;-78
2023/03/16 12:25:53;;;;;;;8.57;3.63;;;8.30;99.90;;;;;;5038162;28;20236;-79
2023/03/16 12:28:24;;;;;;;7.82;3.47;;;9.60;99.90;;;;;;5034333;28;20049;-77
2023/03/16 12:30:58;;;;;;;9.63;4.03;;;9.10;99.90;;;;;;5026762;28;20071;-78
2023/03/16 12:33:34;;;;;;;6.35;3.75;;;8.40;99.90;;;;;;5043401;28;20032;-78
2023/03/16 12:36:18;;;;;;;6.82;3.78;;;8.30;99.90;;;;;;5056751;28;20272;-78
2023/03/16 12:38:57;;;;;;;10.23;3.72;;;8.40;99.90;;;;;;5061710;28;20051;-78
2023/03/16 12:41:48;;;;;;;7.22;3.40;;;8.40;99.90;;;;;;5029433;28;20431;-80
2023/03/16 12:44:19;;;;;;;7.45;3.28;;;8.40;99.90;;;;;;5022595;28;20119;-77
2023/03/16 12:47:27;;;;;;;10.35;4.20;;;9.30;99.90;;;;;;5059625;28;20091;-78
2023/03/16 12:49:53;;;;;;;6.13;3.30;;;8.50;99.90;;;;;;5041307;28;20049;-78
2023/03/16 12:52:19;;;;;;;7.60;3.78;;;8.40;99.90;;;;;;5057387;28;20489;-78
2023/03/16 12:54:53;;;;;;;7.55;3.58;;;8.40;99.90;;;;;;5055674;28;20029;-77
2023/03/16 12:57:25;;;;;;;11.02;4.25;;;8.50;99.90;;;;;;5061849;28;20041;-78
2023/03/16 12:59:57;;;;;;;6.28;3.55;;;8.50;99.90;;;;;;5066748;28;20040;-79
2023/03/16 13:02:31;;;;;;;7.88;4.07;;;8.50;99.90;;;;;;5049313;28;20485;-77
2023/03/16 13:05:11;;;;;;;8.00;4.13;;;8.60;99.90;;;;;;5054763;28;20029;-79